createdAt,value
2022-08-04T00:01:46.792Z,47.90
2022-08-04T00:04:15.458Z,47.76
2022-08-04T00:06:57.671Z,47.99
2022-08-04T00:09:28.569Z,47.89
2022-08-04T00:11:56.217Z,47.92
2022-08-04T00:14:26.442Z,47.71
2022-08-04T00:16:58.657Z,47.89
2022-08-04T00:19:29.281Z,47.70
2022-08-04T00:21:59.239Z,47.78
2022-08-04T00:24:26.841Z,47.69
2022-08-04T00:26:54.681Z,47.56
2022-08-04T00:29:24.636Z,47.52
2022-08-04T00:31:56.309Z,47.50
2022-08-04T00:34:27.535Z,47.62
2022-08-04T00:36:55.616Z,47.67
2022-08-04T00:39:23.667Z,47.32
2022-08-04T00:41:58.389Z,47.76
2022-08-04T00:44:31.067Z,47.74
2022-08-04T00:47:05.790Z,47.56
2022-08-04T00:49:57.389Z,47.69
2022-08-04T00:52:33.957Z,47.72
2022-08-04T00:55:09.224Z,47.65
2022-08-04T00:57:46.069Z,47.61
2022-08-04T01:00:14.539Z,47.60
2022-08-04T01:02:51.604Z,47.60
2022-08-04T01:05:25.001Z,47.83
2022-08-04T01:08:09.482Z,47.65
2022-08-04T01:10:41.970Z,48.14
2022-08-04T01:13:17.574Z,47.79
2022-08-04T01:15:59.797Z,47.96
2022-08-04T01:18:32.069Z,47.83
2022-08-04T01:21:07.526Z,47.90
2022-08-04T01:23:51.704Z,48.28
2022-08-04T01:26:57.366Z,48.22
2022-08-04T01:29:33.687Z,48.12
2022-08-04T01:32:14.236Z,48.23
2022-08-04T01:34:43.443Z,48.13
2022-08-04T01:37:28.473Z,48.44
2022-08-04T01:40:02.066Z,48.30
2022-08-04T01:42:31.354Z,48.31
2022-08-04T01:45:01.681Z,48.49
2022-08-04T01:47:30.216Z,48.39
2022-08-04T01:50:02.312Z,48.31
2022-08-04T01:52:29.930Z,48.60
2022-08-04T01:54:57.534Z,48.51
2022-08-04T01:57:38.004Z,48.60
2022-08-04T02:00:09.984Z,48.71
2022-08-04T02:02:37.710Z,48.65
2022-08-04T02:05:05.632Z,48.91
2022-08-04T02:07:45.114Z,48.48
2022-08-04T02:10:16.406Z,48.61
2022-08-04T02:12:53.793Z,48.66
2022-08-04T02:15:28.232Z,48.55
2022-08-04T02:18:00.928Z,48.93
2022-08-04T02:20:31.568Z,48.72
2022-08-04T02:23:00.203Z,48.81
2022-08-04T02:25:29.028Z,49.06
2022-08-04T02:28:01.734Z,48.86
2022-08-04T02:30:34.799Z,49.02
2022-08-04T02:33:04.215Z,49.10
2022-08-04T02:35:36.066Z,48.99
2022-08-04T02:38:12.721Z,49.23
2022-08-04T02:40:40.698Z,49.37
2022-08-04T02:43:09.328Z,49.12
2022-08-04T02:45:38.485Z,49.34
2022-08-04T02:48:29.107Z,49.30
2022-08-04T02:50:54.377Z,49.64
2022-08-04T02:53:22.958Z,49.73
2022-08-04T02:55:50.857Z,49.54
2022-08-04T02:58:21.041Z,49.67
2022-08-04T03:00:51.552Z,49.60
2022-08-04T03:03:23.836Z,49.67
2022-08-04T03:06:01.573Z,49.91
2022-08-04T03:08:36.981Z,50.01
2022-08-04T03:11:12.488Z,50.00
2022-08-04T03:14:13.118Z,49.90
2022-08-04T03:16:57.822Z,49.93
2022-08-04T03:19:59.610Z,50.22
2022-08-04T03:22:59.715Z,50.01
2022-08-04T03:25:56.571Z,50.21
2022-08-04T03:28:42.534Z,50.41
2022-08-04T03:31:31.021Z,50.45
2022-08-04T03:34:15.954Z,50.46
2022-08-04T03:37:05.325Z,50.64
2022-08-04T03:39:49.578Z,50.33
2022-08-04T03:42:35.487Z,50.36
2022-08-04T03:45:36.117Z,50.33
2022-08-04T03:48:30.073Z,50.31
2022-08-04T03:51:36.294Z,50.44
2022-08-04T03:54:27.726Z,50.63
2022-08-04T03:57:10.322Z,50.50
2022-08-04T03:59:48.860Z,50.42
2022-08-04T04:03:01.354Z,50.72
2022-08-04T04:05:59.930Z,50.45
2022-08-04T04:09:05.215Z,50.47
2022-08-04T04:12:05.909Z,50.67
2022-08-04T04:14:43.652Z,50.65
2022-08-04T04:17:23.066Z,50.53
2022-08-04T04:20:15.191Z,50.57
2022-08-04T04:23:11.340Z,50.83
2022-08-04T04:25:47.321Z,50.74
2022-08-04T04:28:44.556Z,50.50
2022-08-04T04:31:34.510Z,50.60
2022-08-04T04:34:09.241Z,50.71
2022-08-04T04:36:39.458Z,50.88
2022-08-04T04:39:13.947Z,51.09
2022-08-04T04:41:49.837Z,51.27
2022-08-04T04:44:38.535Z,51.06
2022-08-04T04:48:04.033Z,51.08
2022-08-04T04:50:14.428Z,51.05
2022-08-04T04:52:43.315Z,51.23
2022-08-04T04:55:15.210Z,51.18
2022-08-04T04:57:53.313Z,51.59
2022-08-04T05:00:22.481Z,51.43
2022-08-04T05:03:09.743Z,51.64
2022-08-04T05:05:58.033Z,51.91
2022-08-04T05:08:45.100Z,51.92
2022-08-04T05:11:26.846Z,51.24
2022-08-04T05:14:36.879Z,51.79
2022-08-04T05:16:46.761Z,51.74
2022-08-04T05:19:20.979Z,52.10
2022-08-04T05:21:50.064Z,52.14
2022-08-04T05:24:20.674Z,52.16
2022-08-04T05:26:49.729Z,52.54
2022-08-04T05:29:23.077Z,52.64
2022-08-04T05:31:58.739Z,52.96
2022-08-04T05:34:28.613Z,53.04
2022-08-04T05:36:58.695Z,53.27
2022-08-04T05:39:31.022Z,53.51
2022-08-04T05:42:04.585Z,53.66
2022-08-04T05:44:33.982Z,53.76
2022-08-04T05:47:01.572Z,53.64
2022-08-04T05:49:29.543Z,54.06
2022-08-04T05:51:59.313Z,53.98
2022-08-04T05:54:26.937Z,54.60
2022-08-04T05:56:54.905Z,54.68
2022-08-04T05:59:25.507Z,54.10
2022-08-04T06:01:57.336Z,54.57
2022-08-04T06:04:27.977Z,54.39
2022-08-04T06:06:55.688Z,54.25
2022-08-04T06:09:23.311Z,53.91
2022-08-04T06:12:01.989Z,54.37
2022-08-04T06:14:33.793Z,54.11
2022-08-04T06:17:03.329Z,54.21
2022-08-04T06:20:01.199Z,54.48
2022-08-04T06:22:18.750Z,54.11
2022-08-04T06:24:48.018Z,54.12
2022-08-04T06:27:15.769Z,54.02
2022-08-04T06:29:51.264Z,53.98
2022-08-04T06:32:35.499Z,54.00
2022-08-04T06:35:05.827Z,54.12
2022-08-04T06:37:42.808Z,53.93
2022-08-04T06:40:29.689Z,53.81
2022-08-04T06:42:59.698Z,53.94
2022-08-04T06:45:27.507Z,54.00
2022-08-04T06:47:56.512Z,53.83
2022-08-04T06:51:28.278Z,54.07
2022-08-04T06:53:11.726Z,53.92
2022-08-04T06:55:40.451Z,53.97
2022-08-04T06:58:08.477Z,54.00
2022-08-04T07:00:36.884Z,53.96
2022-08-04T07:03:07.061Z,53.97
2022-08-04T07:05:34.836Z,54.02
2022-08-04T07:08:02.550Z,53.83
2022-08-04T07:10:30.518Z,54.02
2022-08-04T07:12:58.641Z,53.82
2022-08-04T07:15:26.448Z,53.75
2022-08-04T07:17:54.196Z,53.91
2022-08-04T07:20:34.928Z,53.65
2022-08-04T07:23:04.581Z,53.55
2022-08-04T07:25:58.661Z,53.75
2022-08-04T07:28:20.025Z,53.72
2022-08-04T07:30:48.309Z,53.62
2022-08-04T07:33:15.978Z,53.64
2022-08-04T07:36:10.646Z,53.78
2022-08-04T07:38:32.599Z,53.54
2022-08-04T07:41:00.285Z,53.68
2022-08-04T07:43:27.896Z,53.60
2022-08-04T07:45:55.473Z,53.67
2022-08-04T07:48:24.359Z,53.85
2022-08-04T07:50:53.654Z,53.64
2022-08-04T07:53:55.011Z,53.64
2022-08-04T07:56:08.932Z,53.87
2022-08-04T07:58:36.577Z,53.98
2022-08-04T08:01:04.245Z,53.66
2022-08-04T08:03:31.946Z,53.73
2022-08-04T08:06:16.669Z,53.59
2022-08-04T08:08:48.557Z,53.46
2022-08-04T08:11:16.251Z,53.76
2022-08-04T08:13:45.423Z,54.01
2022-08-04T08:16:13.087Z,53.91
2022-08-04T08:18:40.752Z,54.33
2022-08-04T08:21:09.797Z,53.63
2022-08-04T08:23:37.446Z,53.81
2022-08-04T08:26:06.670Z,53.74
2022-08-04T08:28:34.280Z,53.63
2022-08-04T08:31:02.125Z,53.90
2022-08-04T08:33:34.978Z,53.76
2022-08-04T08:36:04.594Z,54.05
2022-08-04T08:38:46.029Z,54.14
2022-08-04T08:41:40.246Z,54.12
2022-08-04T08:44:37.493Z,53.96
2022-08-04T08:47:16.309Z,53.75
2022-08-04T08:50:18.048Z,53.74
2022-08-04T08:53:02.647Z,53.75
2022-08-04T08:55:39.818Z,53.70
2022-08-04T08:58:20.381Z,53.59
2022-08-04T09:00:52.545Z,53.73
2022-08-04T09:03:58.771Z,53.72
2022-08-04T09:06:43.393Z,53.60
2022-08-04T09:09:19.366Z,53.45
2022-08-04T09:11:50.314Z,53.67
2022-08-04T09:14:20.477Z,53.53
2022-08-04T09:16:50.458Z,53.44
2022-08-04T09:19:37.738Z,53.42
2022-08-04T09:22:12.980Z,53.51
2022-08-04T09:24:46.635Z,53.73
2022-08-04T09:27:17.899Z,53.75
2022-08-04T09:29:49.195Z,53.54
2022-08-04T09:32:22.220Z,53.45
2022-08-04T09:35:02.123Z,53.58
2022-08-04T09:37:45.882Z,53.20
2022-08-04T09:40:31.114Z,53.19
2022-08-04T09:43:16.408Z,53.20
2022-08-04T09:45:51.297Z,53.16
2022-08-04T09:48:22.194Z,52.90
2022-08-04T09:50:53.436Z,53.17
2022-08-04T09:53:30.405Z,53.34
2022-08-04T09:56:03.491Z,53.58
2022-08-04T09:58:45.413Z,53.67
2022-08-04T10:01:18.610Z,54.00
2022-08-04T10:03:50.453Z,54.40
2022-08-04T10:06:34.175Z,54.31
2022-08-04T10:09:08.931Z,54.02
2022-08-04T10:11:55.841Z,53.90
2022-08-04T10:14:36.449Z,53.95
2022-08-04T10:17:13.373Z,54.16
2022-08-04T10:19:41.788Z,53.98
2022-08-04T10:22:28.104Z,54.02
2022-08-04T10:25:03.275Z,53.79
2022-08-04T10:27:33.919Z,54.37
2022-08-04T10:30:11.777Z,54.23
2022-08-04T10:32:45.090Z,54.31
2022-08-04T10:35:14.687Z,54.15
2022-08-04T10:37:59.489Z,54.16
2022-08-04T10:40:40.673Z,53.75
2022-08-04T10:43:20.548Z,54.02
2022-08-04T10:45:57.821Z,54.14
2022-08-04T10:48:34.756Z,53.78
2022-08-04T10:51:05.410Z,53.82
2022-08-04T10:53:33.018Z,53.59
2022-08-04T10:56:06.503Z,53.72
2022-08-04T10:58:47.117Z,53.79
2022-08-04T11:01:50.689Z,53.64
2022-08-04T11:04:11.505Z,53.54
2022-08-04T11:06:39.170Z,53.56
2022-08-04T11:09:06.855Z,53.66
2022-08-04T11:12:00.493Z,53.27
2022-08-04T11:14:32.668Z,52.83
2022-08-04T11:17:02.745Z,53.06
2022-08-04T11:19:45.207Z,53.15
2022-08-04T11:22:19.859Z,52.89
2022-08-04T11:24:51.499Z,52.90
2022-08-04T11:27:26.694Z,52.81
2022-08-04T11:29:58.776Z,52.53
2022-08-04T11:32:34.386Z,52.58
2022-08-04T11:35:03.748Z,52.47
2022-08-04T11:37:37.806Z,52.53
2022-08-04T11:40:09.677Z,52.42
2022-08-04T11:42:38.895Z,52.23
2022-08-04T11:45:08.062Z,52.00
2022-08-04T11:47:41.339Z,52.09
2022-08-04T11:50:10.950Z,52.14
2022-08-04T11:52:39.611Z,52.37
2022-08-04T11:55:09.471Z,51.86
2022-08-04T11:57:37.238Z,51.94
2022-08-04T12:00:10.915Z,52.07
2022-08-04T12:02:51.627Z,52.30
2022-08-04T12:05:35.332Z,52.13
2022-08-04T12:08:12.150Z,52.24
2022-08-04T12:10:43.481Z,51.90
2022-08-04T12:13:23.097Z,52.15
2022-08-04T12:15:56.798Z,52.32
2022-08-04T12:18:27.786Z,52.22
2022-08-04T12:20:58.273Z,52.44
2022-08-04T12:23:30.912Z,51.78
2022-08-04T12:26:01.586Z,51.87
2022-08-04T12:28:59.652Z,52.00
2022-08-04T12:31:23.423Z,52.10
2022-08-04T12:34:04.861Z,52.00
2022-08-04T12:36:37.021Z,52.27
2022-08-04T12:39:10.414Z,52.06
2022-08-04T12:41:41.679Z,52.30
2022-08-04T12:44:36.817Z,52.14
2022-08-04T12:47:28.444Z,52.19
2022-08-04T12:49:59.052Z,52.52
2022-08-04T12:52:45.372Z,52.20
2022-08-04T12:55:16.545Z,51.89
2022-08-04T12:57:44.295Z,52.42
2022-08-04T13:00:13.247Z,52.58
2022-08-04T13:02:43.864Z,52.40
2022-08-04T13:05:17.103Z,52.31
2022-08-04T13:07:48.475Z,52.08
2022-08-04T13:10:18.187Z,52.22
2022-08-04T13:12:52.899Z,52.60
2022-08-04T13:15:22.449Z,52.39
2022-08-04T13:17:52.987Z,52.12
2022-08-04T13:20:32.946Z,52.17
2022-08-04T13:23:02.037Z,51.65
2022-08-04T13:26:43.169Z,51.95
2022-08-04T13:28:21.982Z,51.99
2022-08-04T13:30:50.606Z,51.94
2022-08-04T13:33:18.490Z,51.78
2022-08-04T13:35:55.417Z,51.60
2022-08-04T13:38:24.161Z,51.50
2022-08-04T13:40:52.031Z,51.55
2022-08-04T13:44:16.704Z,51.21
2022-08-04T13:46:27.723Z,51.31
2022-08-04T13:49:23.643Z,51.37
2022-08-04T13:51:57.972Z,51.07
2022-08-04T13:54:26.813Z,51.23
2022-08-04T13:57:00.155Z,51.15
2022-08-04T13:59:28.683Z,51.25
2022-08-04T14:02:00.840Z,50.96
2022-08-04T14:04:28.948Z,50.95
2022-08-04T14:07:02.173Z,51.05
2022-08-04T14:09:35.054Z,51.01
2022-08-04T14:12:38.956Z,50.95
2022-08-04T14:14:56.044Z,50.93
2022-08-04T14:17:30.230Z,51.11
2022-08-04T14:19:58.933Z,50.75
2022-08-04T14:22:36.014Z,50.65
2022-08-04T14:25:07.281Z,51.11
2022-08-04T14:27:42.490Z,50.64
2022-08-04T14:30:21.698Z,50.74
2022-08-04T14:32:59.492Z,50.78
2022-08-04T14:35:57.312Z,50.69
2022-08-04T14:38:26.578Z,50.75
2022-08-04T14:40:54.170Z,50.20
2022-08-04T14:43:21.977Z,50.22
2022-08-04T14:45:54.961Z,50.43
2022-08-04T14:48:23.059Z,50.37
2022-08-04T14:50:51.331Z,50.50
2022-08-04T14:53:20.215Z,50.48
2022-08-04T14:55:49.879Z,50.39
2022-08-04T14:58:35.898Z,50.24
2022-08-04T15:01:09.603Z,50.29
2022-08-04T15:03:50.160Z,50.48
2022-08-04T15:06:22.828Z,50.22
2022-08-04T15:08:51.091Z,50.26
2022-08-04T15:11:23.466Z,50.09
2022-08-04T15:13:51.808Z,49.79
2022-08-04T15:16:19.449Z,49.96
2022-08-04T15:18:49.512Z,49.50
2022-08-04T15:21:17.430Z,49.52
2022-08-04T15:23:45.095Z,49.59
2022-08-04T15:26:14.673Z,48.98
2022-08-04T15:28:47.251Z,49.40
2022-08-04T15:32:04.092Z,49.19
2022-08-04T15:34:02.489Z,49.29
2022-08-04T15:36:36.315Z,49.03
2022-08-04T15:39:10.934Z,49.06
2022-08-04T15:41:46.791Z,48.45
2022-08-04T15:44:32.343Z,48.31
2022-08-04T15:47:14.153Z,48.51
2022-08-04T15:49:42.002Z,48.57
2022-08-04T15:52:12.443Z,48.27
2022-08-04T15:54:42.196Z,48.61
2022-08-04T15:57:19.840Z,48.11
2022-08-04T16:00:00.005Z,47.88
2022-08-04T16:02:45.795Z,47.59
2022-08-04T16:05:39.538Z,48.17
2022-08-04T16:08:12.119Z,47.70
2022-08-04T16:10:40.718Z,47.77
2022-08-04T16:13:09.302Z,47.59
2022-08-04T16:15:43.118Z,47.25
2022-08-04T16:18:25.534Z,47.14
2022-08-04T16:20:55.502Z,46.67
2022-08-04T16:23:53.042Z,46.63
2022-08-04T16:26:46.204Z,46.55
2022-08-04T16:29:38.861Z,46.95
2022-08-04T16:32:21.356Z,46.67
2022-08-04T16:34:54.310Z,46.61
2022-08-04T16:37:24.921Z,46.01
2022-08-04T16:39:52.758Z,46.21
2022-08-04T16:42:30.676Z,46.28
2022-08-04T16:45:01.989Z,46.29
2022-08-04T16:48:07.751Z,45.91
2022-08-04T16:50:35.612Z,45.79
2022-08-04T16:53:03.258Z,45.83
2022-08-04T16:55:30.867Z,45.64
2022-08-04T16:57:59.717Z,45.32
2022-08-04T17:00:31.541Z,45.50
2022-08-04T17:02:59.397Z,45.14
2022-08-04T17:05:38.183Z,45.19
2022-08-04T17:08:29.075Z,45.50
2022-08-04T17:10:55.404Z,44.83
2022-08-04T17:14:02.119Z,45.20
2022-08-04T17:16:17.833Z,45.01
2022-08-04T17:18:48.532Z,44.60
2022-08-04T17:21:19.751Z,44.73
2022-08-04T17:24:12.651Z,44.90
2022-08-04T17:26:40.416Z,44.84
2022-08-04T17:29:09.378Z,44.82
2022-08-04T17:31:38.400Z,45.08
2022-08-04T17:34:14.391Z,44.53
2022-08-04T17:36:45.629Z,44.63
2022-08-04T17:39:17.630Z,44.41
2022-08-04T17:41:49.055Z,44.46
2022-08-04T17:44:17.628Z,44.55
2022-08-04T17:46:48.308Z,44.79
2022-08-04T17:49:21.809Z,44.57
2022-08-04T17:52:05.706Z,44.64
2022-08-04T17:54:39.975Z,44.68
2022-08-04T17:57:15.310Z,44.82
2022-08-04T17:59:57.192Z,45.07
2022-08-04T18:02:32.923Z,45.15
2022-08-04T18:05:07.598Z,45.90
2022-08-04T18:08:39.481Z,46.62
2022-08-04T18:10:44.666Z,47.05
2022-08-04T18:13:24.910Z,47.73
2022-08-04T18:16:02.355Z,47.54
2022-08-04T18:18:30.357Z,48.04
2022-08-04T18:23:50.693Z,47.86
2022-08-04T18:26:18.897Z,47.88
2022-08-04T18:28:51.988Z,48.09
2022-08-04T18:31:19.729Z,47.78
2022-08-04T18:33:56.866Z,47.56
2022-08-04T18:36:34.877Z,47.67
2022-08-04T18:42:03.666Z,46.83
2022-08-04T18:44:32.229Z,46.95
2022-08-04T18:47:19.652Z,46.86
2022-08-04T18:51:01.773Z,46.88
2022-08-04T18:52:35.506Z,46.39
2022-08-04T18:55:11.227Z,45.80
2022-08-04T18:58:00.969Z,46.05
2022-08-04T19:00:27.482Z,45.73
2022-08-04T19:02:55.069Z,45.44
2022-08-04T19:05:24.917Z,45.40
2022-08-04T19:08:11.534Z,44.84
2022-08-04T19:10:59.850Z,44.75
2022-08-04T19:13:29.562Z,44.33
2022-08-04T19:16:03.015Z,44.50
2022-08-04T19:18:32.263Z,44.50
2022-08-04T19:21:06.972Z,44.45
2022-08-04T19:24:26.448Z,44.42
2022-08-04T19:26:28.194Z,44.26
2022-08-04T19:28:56.116Z,44.11
2022-08-04T19:31:28.185Z,44.37
2022-08-04T19:34:04.656Z,44.40
2022-08-04T19:36:33.046Z,44.65
2022-08-04T19:39:02.158Z,44.32
2022-08-04T19:41:33.729Z,44.16
2022-08-04T19:44:21.363Z,44.29
2022-08-04T19:46:51.229Z,44.33
2022-08-04T19:50:02.905Z,44.67
2022-08-04T19:52:08.510Z,44.95
2022-08-04T19:54:37.167Z,44.68
2022-08-04T19:57:11.869Z,44.82
2022-08-04T19:59:48.258Z,45.02
2022-08-04T20:02:16.245Z,45.01
2022-08-04T20:04:43.885Z,44.96
2022-08-04T20:07:14.443Z,45.07
2022-08-04T20:09:43.077Z,45.13
2022-08-04T20:12:23.423Z,45.29
2022-08-04T20:14:52.744Z,45.45
2022-08-04T20:17:22.848Z,45.29
2022-08-04T20:20:11.230Z,45.67
2022-08-04T20:22:52.089Z,45.35
2022-08-04T20:25:36.520Z,45.43
2022-08-04T20:28:06.934Z,45.49
2022-08-04T20:30:34.536Z,45.36
2022-08-04T20:33:04.382Z,44.78
2022-08-04T20:36:00.658Z,44.97
2022-08-04T20:38:33.416Z,45.23
2022-08-04T20:41:01.653Z,45.67
2022-08-04T20:43:31.129Z,45.29
2022-08-04T20:45:59.815Z,44.92
2022-08-04T20:48:28.670Z,44.76
2022-08-04T20:50:56.504Z,44.43
2022-08-04T20:53:46.881Z,44.22
2022-08-04T20:56:19.412Z,44.02
2022-08-04T20:58:59.496Z,43.93
2022-08-04T21:01:29.926Z,43.99
2022-08-04T21:04:28.285Z,43.74
2022-08-04T21:06:57.361Z,43.56
2022-08-04T21:09:37.381Z,43.69
2022-08-04T21:12:10.756Z,43.32
2022-08-04T21:14:56.711Z,43.42
2022-08-04T21:17:59.523Z,43.52
2022-08-04T21:20:13.767Z,43.38
2022-08-04T21:22:41.598Z,43.36
2022-08-04T21:25:16.165Z,43.70
2022-08-04T21:27:44.176Z,43.71
2022-08-04T21:30:23.920Z,43.65
2022-08-04T21:35:39.789Z,44.04
2022-08-04T21:38:16.142Z,43.89
2022-08-04T21:40:47.333Z,44.03
2022-08-04T21:43:14.932Z,44.34
2022-08-04T21:45:44.949Z,44.56
2022-08-04T21:48:16.018Z,44.54
2022-08-04T21:50:43.866Z,44.35
2022-08-04T21:53:19.829Z,44.23
2022-08-04T21:56:04.869Z,44.18
2022-08-04T21:58:34.744Z,44.45
2022-08-04T22:01:12.606Z,44.46
2022-08-04T22:03:51.680Z,44.67
2022-08-04T22:06:21.352Z,44.65
2022-08-04T22:08:56.538Z,44.79
2022-08-04T22:11:26.204Z,44.41
2022-08-04T22:14:11.918Z,44.61
2022-08-04T22:16:41.211Z,44.74
2022-08-04T22:19:10.883Z,44.68
2022-08-04T22:21:39.112Z,44.73
2022-08-04T22:24:13.945Z,44.99
2022-08-04T22:26:42.353Z,44.96
2022-08-04T22:29:14.177Z,45.22
2022-08-04T22:31:55.651Z,45.39
2022-08-04T22:34:24.058Z,45.36
2022-08-04T22:36:53.486Z,45.77
2022-08-04T22:39:23.364Z,46.00
2022-08-04T22:42:04.493Z,46.31
2022-08-04T22:44:33.375Z,46.44
2022-08-04T22:47:02.557Z,46.61
2022-08-04T22:49:32.564Z,46.88
2022-08-04T22:52:02.897Z,47.19
2022-08-04T22:54:37.671Z,46.83
2022-08-04T22:57:05.714Z,47.20
2022-08-04T22:59:37.846Z,46.92
2022-08-04T23:02:10.213Z,47.25
2022-08-04T23:04:37.813Z,47.76
2022-08-04T23:07:09.218Z,47.84
2022-08-04T23:09:50.842Z,47.89
2022-08-04T23:12:27.175Z,47.54
2022-08-04T23:14:56.366Z,47.89
2022-08-04T23:17:27.649Z,47.88
2022-08-04T23:19:58.755Z,47.96
2022-08-04T23:22:37.458Z,48.14
2022-08-04T23:25:16.386Z,48.22
2022-08-04T23:27:50.677Z,48.10
2022-08-04T23:30:21.544Z,48.01
2022-08-04T23:32:51.272Z,48.24
2022-08-04T23:35:19.403Z,48.19
2022-08-04T23:37:56.574Z,47.94
2022-08-04T23:40:32.468Z,48.30
2022-08-04T23:43:01.954Z,47.98
2022-08-04T23:46:04.214Z,48.28
2022-08-04T23:48:21.195Z,48.15
2022-08-04T23:50:48.885Z,48.33
2022-08-04T23:53:18.604Z,48.58
2022-08-04T23:55:50.090Z,48.31
2022-08-04T23:58:20.931Z,48.70
